Time;durP1;ratioP1;P1;durP2;ratioP2;P2;SDS_P1;SDS_P2;PMS_P1;PMS_P2;Temp;Humidity;BMP_temperature;BMP_pressure;BME280_temperature;BME280_humidity;BME280_pressure;Samples;Min_cycle;Max_cycle;Signal;HPM_P1;HPM_P2
2021/10/27 00:02:22;;;;;;;54.40;21.87;;;;;;;;;;4986265;28;20038;-76
2021/10/27 00:04:47;;;;;;;75.17;33.03;;;;;;;;;;4986448;28;20031;-75
2021/10/27 00:07:15;;;;;;;60.00;24.43;;;;;;;;;;4986331;28;20022;-75
2021/10/27 00:09:41;;;;;;;61.37;23.80;;;;;;;;;;4971327;28;20462;-76
2021/10/27 00:12:07;;;;;;;66.37;24.37;;;;;;;;;;4971385;28;20459;-75
2021/10/27 00:14:33;;;;;;;59.20;23.73;;;;;;;;;;4970353;28;20043;-76
2021/10/27 00:16:59;;;;;;;64.53;23.93;;;;;;;;;;4985958;28;20027;-76
2021/10/27 00:19:25;;;;;;;52.90;22.17;;;;;;;;;;4986312;28;20026;-77
2021/10/27 00:21:50;;;;;;;55.10;23.73;;;;;;;;;;4986249;28;20041;-74
2021/10/27 00:24:16;;;;;;;53.17;22.03;;;;;;;;;;4971182;28;20446;-75
2021/10/27 00:26:42;;;;;;;48.63;22.77;;;;;;;;;;4986341;28;20109;-76
2021/10/27 00:29:07;;;;;;;53.77;22.03;;;;;;;;;;4971480;28;20102;-76
2021/10/27 00:31:33;;;;;;;53.43;21.33;;;;;;;;;;4985978;28;20039;-75
2021/10/27 00:33:59;;;;;;;54.97;23.07;;;;;;;;;;4969909;28;20117;-75
2021/10/27 00:36:25;;;;;;;53.53;20.73;;;;;;;;;;4985643;28;20109;-74
2021/10/27 00:38:50;;;;;;;51.93;22.40;;;;;;;;;;4985890;28;20121;-74
2021/10/27 00:41:16;;;;;;;48.40;22.17;;;;;;;;;;4985683;28;20040;-74
2021/10/27 00:43:42;;;;;;;47.27;21.33;;;;;;;;;;4985912;28;20391;-74
2021/10/27 00:46:20;;;;;;;45.83;19.97;;;;;;;;;;4971017;28;20034;-73
2021/10/27 00:48:47;;;;;;;46.30;20.17;;;;;;;;;;4971197;28;20031;-74
2021/10/27 00:51:13;;;;;;;48.07;21.43;;;;;;;;;;4985551;28;20227;-73
2021/10/27 00:53:39;;;;;;;52.27;22.27;;;;;;;;;;4985573;28;20122;-75
2021/10/27 00:56:05;;;;;;;49.87;19.93;;;;;;;;;;4971069;28;20037;-74
2021/10/27 00:58:31;;;;;;;50.33;21.13;;;;;;;;;;4985749;28;20042;-75
2021/10/27 01:00:57;;;;;;;46.67;20.73;;;;;;;;;;4989707;28;20034;-72
2021/10/27 01:03:23;;;;;;;50.17;21.20;;;;;;;;;;4989398;28;20387;-75
2021/10/27 01:05:49;;;;;;;44.37;19.60;;;;;;;;;;4989592;28;20089;-76
2021/10/27 01:08:15;;;;;;;52.67;22.20;;;;;;;;;;4989660;28;20038;-76
2021/10/27 01:10:41;;;;;;;46.10;20.67;;;;;;;;;;4989820;28;20031;-76
2021/10/27 01:13:07;;;;;;;47.53;19.27;;;;;;;;;;4989451;28;20034;-77
2021/10/27 01:15:38;;;;;;;48.03;20.87;;;;;;;;;;4974150;28;20064;-74
2021/10/27 01:18:04;;;;;;;46.75;21.10;;;;;;;;;;4989430;28;20035;-75
2021/10/27 01:20:30;;;;;;;46.03;19.70;;;;;;;;;;4977635;28;20031;-77
2021/10/27 01:22:55;;;;;;;46.77;22.13;;;;;;;;;;5012834;28;20033;-76
2021/10/27 01:25:21;;;;;;;45.13;20.43;;;;;;;;;;5028196;28;20030;-75
2021/10/27 01:27:47;;;;;;;44.40;21.47;;;;;;;;;;5028561;28;20057;-74
2021/10/27 01:30:16;;;;;;;45.50;20.80;;;;;;;;;;5013178;28;20022;-76
2021/10/27 01:32:42;;;;;;;42.80;19.53;;;;;;;;;;5028276;28;20129;-75
2021/10/27 01:35:08;;;;;;;47.67;20.07;;;;;;;;;;5013194;28;20113;-73
2021/10/27 01:37:38;;;;;;;41.20;20.47;;;;;;;;;;5012764;28;20022;-75
2021/10/27 01:40:10;;;;;;;40.97;18.63;;;;;;;;;;5013406;28;20077;-76
2021/10/27 01:42:35;;;;;;;42.95;20.33;;;;;;;;;;5012112;28;20058;-76
2021/10/27 01:45:02;;;;;;;47.50;21.17;;;;;;;;;;5011966;28;20115;-75
2021/10/27 01:47:28;;;;;;;44.20;20.53;;;;;;;;;;5013047;28;20152;-75
2021/10/27 01:49:53;;;;;;;38.87;18.87;;;;;;;;;;5013240;28;20108;-74
2021/10/27 01:52:20;;;;;;;43.67;20.23;;;;;;;;;;5012771;28;20101;-74
2021/10/27 01:54:45;;;;;;;43.30;19.93;;;;;;;;;;5011725;28;20022;-75
2021/10/27 01:57:11;;;;;;;40.77;19.67;;;;;;;;;;5012711;28;20025;-73
2021/10/27 01:59:37;;;;;;;40.83;19.43;;;;;;;;;;5027783;28;20022;-76
2021/10/27 02:02:04;;;;;;;39.47;19.70;;;;;;;;;;5012649;28;20028;-74
2021/10/27 02:04:29;;;;;;;41.97;19.57;;;;;;;;;;5012613;28;20108;-73
2021/10/27 02:06:55;;;;;;;36.73;19.70;;;;;;;;;;5012652;28;20414;-74
2021/10/27 02:09:21;;;;;;;43.83;19.50;;;;;;;;;;5027628;28;20025;-75
2021/10/27 02:11:47;;;;;;;44.00;20.27;;;;;;;;;;5027002;28;20049;-74
2021/10/27 02:14:12;;;;;;;38.13;18.00;;;;;;;;;;5011096;28;20501;-75
2021/10/27 02:16:38;;;;;;;35.83;18.63;;;;;;;;;;5027460;28;20033;-75
2021/10/27 02:19:06;;;;;;;43.40;20.60;;;;;;;;;;5012741;28;20397;-76
2021/10/27 02:21:31;;;;;;;45.37;20.47;;;;;;;;;;5027094;28;20026;-75
2021/10/27 02:23:57;;;;;;;45.43;20.47;;;;;;;;;;5027749;28;20025;-76
2021/10/27 02:26:22;;;;;;;40.13;18.10;;;;;;;;;;5012119;28;20030;-75
2021/10/27 02:28:48;;;;;;;42.07;19.90;;;;;;;;;;5012427;28;20092;-76
2021/10/27 02:31:14;;;;;;;45.63;19.33;;;;;;;;;;5011512;28;20056;-75
2021/10/27 02:33:39;;;;;;;43.07;19.77;;;;;;;;;;5027205;28;20081;-77
2021/10/27 02:36:05;;;;;;;35.73;18.87;;;;;;;;;;5010718;28;20068;-75
2021/10/27 02:38:31;;;;;;;41.13;19.80;;;;;;;;;;5012012;28;20045;-74
2021/10/27 02:40:56;;;;;;;36.10;18.87;;;;;;;;;;5027133;28;20064;-75
2021/10/27 02:43:22;;;;;;;46.20;20.40;;;;;;;;;;5026829;28;20072;-75
2021/10/27 02:45:48;;;;;;;39.37;19.13;;;;;;;;;;5028078;28;20034;-75
2021/10/27 02:48:15;;;;;;;45.80;21.37;;;;;;;;;;5028481;28;20045;-74
2021/10/27 02:50:41;;;;;;;44.13;21.77;;;;;;;;;;5027467;28;20022;-76
2021/10/27 02:53:07;;;;;;;48.73;20.03;;;;;;;;;;5010602;28;20036;-75
2021/10/27 02:55:33;;;;;;;42.23;20.43;;;;;;;;;;5010313;28;20025;-74
2021/10/27 02:58:00;;;;;;;44.83;21.50;;;;;;;;;;5026776;28;20036;-76
2021/10/27 03:00:26;;;;;;;43.87;22.70;;;;;;;;;;5011572;28;20026;-74
2021/10/27 03:02:53;;;;;;;45.90;21.33;;;;;;;;;;5026973;28;20124;-76
2021/10/27 03:05:18;;;;;;;48.00;22.30;;;;;;;;;;5026531;28;20393;-76
2021/10/27 03:07:44;;;;;;;42.37;20.20;;;;;;;;;;5011384;28;20049;-75
2021/10/27 03:10:09;;;;;;;42.67;20.67;;;;;;;;;;5026698;28;20022;-76
2021/10/27 03:12:35;;;;;;;46.40;21.23;;;;;;;;;;5026188;28;20026;-75
2021/10/27 03:15:01;;;;;;;47.73;20.90;;;;;;;;;;5011421;28;20053;-74
2021/10/27 03:17:26;;;;;;;47.30;20.93;;;;;;;;;;5010814;28;20322;-75
2021/10/27 03:19:53;;;;;;;46.13;22.60;;;;;;;;;;5011576;28;20030;-76
2021/10/27 03:22:18;;;;;;;46.30;21.17;;;;;;;;;;5010276;28;20026;-76
2021/10/27 03:24:45;;;;;;;44.23;22.23;;;;;;;;;;5026519;28;20032;-76
2021/10/27 03:27:10;;;;;;;46.87;21.60;;;;;;;;;;5026381;28;20022;-74
2021/10/27 03:29:36;;;;;;;50.93;23.17;;;;;;;;;;5026079;28;20496;-76
2021/10/27 03:32:02;;;;;;;50.53;22.63;;;;;;;;;;5011004;28;20183;-76
2021/10/27 03:34:28;;;;;;;49.80;22.87;;;;;;;;;;5010673;28;20018;-75
2021/10/27 03:36:53;;;;;;;49.33;22.57;;;;;;;;;;5010646;28;20026;-74
2021/10/27 03:39:20;;;;;;;50.20;22.97;;;;;;;;;;5010481;28;20105;-75
2021/10/27 03:41:46;;;;;;;54.20;23.40;;;;;;;;;;5010713;28;20469;-74
2021/10/27 03:44:13;;;;;;;47.30;23.07;;;;;;;;;;5010968;28;20033;-74
2021/10/27 03:46:38;;;;;;;61.03;22.87;;;;;;;;;;5025734;28;20424;-76
2021/10/27 03:49:04;;;;;;;47.57;22.20;;;;;;;;;;5010917;28;20033;-74
2021/10/27 03:51:30;;;;;;;56.60;24.33;;;;;;;;;;5011111;28;20022;-75
2021/10/27 03:53:56;;;;;;;54.97;24.40;;;;;;;;;;5025925;28;20037;-75
2021/10/27 03:56:21;;;;;;;59.50;24.27;;;;;;;;;;5010443;28;20389;-76
2021/10/27 03:58:47;;;;;;;56.90;25.47;;;;;;;;;;5010508;28;20033;-77
2021/10/27 04:01:13;;;;;;;51.43;24.07;;;;;;;;;;5025646;28;20121;-74
2021/10/27 04:03:39;;;;;;;55.40;24.70;;;;;;;;;;5025261;28;20561;-75
2021/10/27 04:06:04;;;;;;;51.80;24.47;;;;;;;;;;5025758;28;20116;-75
2021/10/27 04:08:30;;;;;;;54.87;25.87;;;;;;;;;;5010158;28;20029;-74
2021/10/27 04:10:56;;;;;;;50.70;23.73;;;;;;;;;;5025635;28;20416;-75
2021/10/27 04:13:22;;;;;;;64.37;25.40;;;;;;;;;;5025766;28;20112;-74
2021/10/27 04:15:48;;;;;;;60.47;24.83;;;;;;;;;;5009322;28;20034;-75
2021/10/27 04:18:14;;;;;;;58.30;24.43;;;;;;;;;;5025567;28;20036;-76
2021/10/27 04:20:40;;;;;;;67.17;26.90;;;;;;;;;;5008818;28;20470;-75
2021/10/27 04:23:07;;;;;;;65.60;25.53;;;;;;;;;;5024998;28;20029;-76
2021/10/27 04:25:32;;;;;;;60.87;26.70;;;;;;;;;;5009839;28;20029;-74
2021/10/27 04:27:58;;;;;;;65.50;27.23;;;;;;;;;;5010265;28;20026;-75
2021/10/27 04:30:24;;;;;;;62.47;25.00;;;;;;;;;;5008888;28;20057;-75
2021/10/27 04:32:49;;;;;;;71.47;27.97;;;;;;;;;;5026608;28;20136;-74
2021/10/27 04:35:15;;;;;;;65.57;26.87;;;;;;;;;;5026857;28;20057;-75
2021/10/27 04:37:44;;;;;;;58.50;27.03;;;;;;;;;;5027525;28;20030;-74
2021/10/27 04:40:13;;;;;;;55.77;25.67;;;;;;;;;;5011775;28;20022;-76
2021/10/27 04:42:38;;;;;;;73.03;27.00;;;;;;;;;;5025919;28;20022;-77
2021/10/27 04:45:05;;;;;;;59.97;26.63;;;;;;;;;;5011998;28;20032;-76
2021/10/27 04:47:31;;;;;;;62.47;28.20;;;;;;;;;;5011163;28;20013;-76
2021/10/27 04:49:57;;;;;;;69.60;27.30;;;;;;;;;;5010898;28;20386;-75
2021/10/27 04:52:23;;;;;;;67.77;28.67;;;;;;;;;;5009916;28;20477;-76
2021/10/27 04:54:49;;;;;;;70.13;28.83;;;;;;;;;;5025036;28;20052;-75
2021/10/27 04:57:15;;;;;;;69.20;27.13;;;;;;;;;;5009814;28;20053;-75
2021/10/27 04:59:44;;;;;;;66.03;27.43;;;;;;;;;;5009742;28;20022;-75
2021/10/27 05:02:15;;;;;;;66.90;26.40;;;;;;;;;;5008655;28;20060;-76
2021/10/27 05:04:41;;;;;;;63.97;27.73;;;;;;;;;;5024860;28;20018;-75
2021/10/27 05:07:09;;;;;;;63.60;26.77;;;;;;;;;;5024683;28;20030;-75
2021/10/27 05:09:35;;;;;;;76.07;28.43;;;;;;;;;;5009270;28;20032;-74
2021/10/27 05:12:04;;;;;;;71.60;28.47;;;;;;;;;;5009526;28;20371;-75
2021/10/27 05:14:30;;;;;;;72.37;30.33;;;;;;;;;;5024406;28;20445;-74
2021/10/27 05:16:56;;;;;;;82.87;31.30;;;;;;;;;;5024383;28;20064;-76
2021/10/27 05:19:21;;;;;;;72.97;31.13;;;;;;;;;;5024443;28;20052;-75
2021/10/27 05:21:47;;;;;;;73.57;32.20;;;;;;;;;;5009282;28;20034;-77
2021/10/27 05:24:13;;;;;;;73.40;29.77;;;;;;;;;;5008354;28;20045;-75
2021/10/27 05:26:39;;;;;;;77.50;30.63;;;;;;;;;;5024390;28;20533;-75
2021/10/27 05:29:04;;;;;;;75.77;28.57;;;;;;;;;;4999637;28;20133;-75
2021/10/27 05:31:30;;;;;;;88.07;32.40;;;;;;;;;;4978705;28;20056;-76
2021/10/27 05:33:56;;;;;;;74.13;29.63;;;;;;;;;;4988694;28;20041;-76
2021/10/27 05:36:21;;;;;;;81.00;29.90;;;;;;;;;;4990574;28;20064;-75
2021/10/27 05:38:47;;;;;;;75.60;29.73;;;;;;;;;;4991486;28;20035;-74
2021/10/27 05:41:12;;;;;;;86.80;33.33;;;;;;;;;;4989145;28;20496;-74
2021/10/27 05:43:38;;;;;;;68.23;29.77;;;;;;;;;;4986579;28;20037;-75
2021/10/27 05:46:04;;;;;;;92.47;36.30;;;;;;;;;;4990393;28;20034;-77
2021/10/27 05:48:37;;;;;;;80.83;30.03;;;;;;;;;;4991950;28;20025;-76
2021/10/27 05:56:19;;;;;;;69.50;29.77;;;;;;;;;;4992553;28;20105;-74
2021/10/27 05:58:45;;;;;;;79.83;29.20;;;;;;;;;;4992928;28;20064;-75
2021/10/27 06:01:10;;;;;;;74.67;29.70;;;;;;;;;;5008477;28;20044;-76
2021/10/27 06:03:37;;;;;;;72.73;29.63;;;;;;;;;;4993525;28;20030;-75
2021/10/27 06:06:03;;;;;;;86.27;30.90;;;;;;;;;;5006903;28;20026;-74
2021/10/27 06:08:29;;;;;;;84.97;30.13;;;;;;;;;;4997333;28;20038;-75
2021/10/27 06:10:58;;;;;;;86.33;31.00;;;;;;;;;;4990640;28;20065;-76
2021/10/27 06:13:31;;;;;;;77.93;29.80;;;;;;;;;;4996656;28;20504;-72
2021/10/27 06:15:57;;;;;;;83.13;32.03;;;;;;;;;;4982457;28;20471;-77
2021/10/27 06:18:22;;;;;;;91.63;35.37;;;;;;;;;;5004446;28;20041;-76
2021/10/27 06:20:51;;;;;;;75.47;32.63;;;;;;;;;;4988962;28;20077;-74
2021/10/27 06:23:18;;;;;;;81.67;30.80;;;;;;;;;;4991544;28;20041;-76
2021/10/27 06:25:45;;;;;;;109.63;30.63;;;;;;;;;;4990939;28;20073;-74
2021/10/27 06:28:15;;;;;;;83.90;30.23;;;;;;;;;;5010052;28;20061;-77
2021/10/27 06:30:44;;;;;;;74.37;29.00;;;;;;;;;;4987476;28;20027;-75
2021/10/27 06:35:55;;;;;;;82.57;28.50;;;;;;;;;;4990476;28;20042;-74
2021/10/27 06:48:50;;;;;;;68.60;28.20;;;;;;;;;;4990357;28;20030;-76
2021/10/27 06:51:16;;;;;;;76.97;30.17;;;;;;;;;;4982598;28;20490;-75
2021/10/27 06:53:42;;;;;;;63.83;27.73;;;;;;;;;;4985533;28;20024;-77
2021/10/27 06:56:12;;;;;;;66.23;26.93;;;;;;;;;;4996176;28;20034;-76
2021/10/27 06:59:19;;;;;;;82.47;31.17;;;;;;;;;;5005531;28;20080;-75
2021/10/27 07:17:23;;;;;;;63.20;27.20;;;;;;;;;;4997833;28;20045;-75
2021/10/27 07:19:48;;;;;;;74.03;28.83;;;;;;;;;;5006930;28;20084;-76
2021/10/27 07:22:14;;;;;;;76.53;29.53;;;;;;;;;;4994455;28;20303;-76
2021/10/27 07:24:41;;;;;;;69.97;26.60;;;;;;;;;;4987393;28;20049;-74
2021/10/27 07:27:09;;;;;;;73.20;28.63;;;;;;;;;;4991413;28;20086;-76
2021/10/27 07:29:35;;;;;;;68.90;27.50;;;;;;;;;;4988921;28;20037;-74
2021/10/27 07:32:04;;;;;;;78.27;29.53;;;;;;;;;;5006236;28;20129;-74
2021/10/27 07:34:37;;;;;;;68.87;29.10;;;;;;;;;;4997110;28;20046;-76
2021/10/27 07:42:34;;;;;;;81.83;28.40;;;;;;;;;;4984230;28;20026;-75
2021/10/27 07:45:00;;;;;;;69.90;27.50;;;;;;;;;;4984855;28;20034;-75
2021/10/27 07:47:26;;;;;;;74.63;27.70;;;;;;;;;;5007227;28;20548;-74
2021/10/27 07:49:51;;;;;;;69.20;27.47;;;;;;;;;;5005711;28;20469;-75
2021/10/27 07:52:17;;;;;;;75.30;28.93;;;;;;;;;;5001563;28;20034;-75
2021/10/27 07:54:45;;;;;;;69.93;29.30;;;;;;;;;;4982444;28;20033;-75
2021/10/27 07:57:11;;;;;;;70.43;28.57;;;;;;;;;;4991266;28;20026;-74
2021/10/27 07:59:37;;;;;;;70.47;29.27;;;;;;;;;;4983702;28;20096;-76
2021/10/27 08:02:06;;;;;;;79.97;29.53;;;;;;;;;;4992069;28;20033;-74
2021/10/27 08:04:39;;;;;;;84.27;32.77;;;;;;;;;;5000038;28;20034;-76
2021/10/27 08:07:04;;;;;;;82.50;29.57;;;;;;;;;;5004323;28;20574;-76
2021/10/27 08:09:30;;;;;;;85.00;33.17;;;;;;;;;;5001685;28;20033;-75
2021/10/27 08:11:58;;;;;;;81.73;33.47;;;;;;;;;;4996231;28;20045;-71
2021/10/27 08:14:26;;;;;;;89.67;32.60;;;;;;;;;;4988932;28;20086;-76
2021/10/27 08:16:52;;;;;;;84.93;30.07;;;;;;;;;;4987003;28;20045;-74
2021/10/27 08:19:18;;;;;;;76.80;30.17;;;;;;;;;;4982752;28;20031;-75
2021/10/27 08:21:43;;;;;;;77.27;29.60;;;;;;;;;;4985064;28;20029;-75
2021/10/27 08:24:12;;;;;;;78.77;28.13;;;;;;;;;;4993710;28;20637;-73
2021/10/27 08:26:45;;;;;;;79.93;29.13;;;;;;;;;;4987084;28;20081;-75
2021/10/27 08:29:13;;;;;;;87.33;31.40;;;;;;;;;;4986632;28;20117;-75
2021/10/27 08:31:41;;;;;;;84.03;30.87;;;;;;;;;;4983535;28;20149;-75
2021/10/27 08:34:31;;;;;;;82.37;30.30;;;;;;;;;;5002113;28;20058;-75
2021/10/27 08:36:57;;;;;;;80.47;29.27;;;;;;;;;;4986827;28;20026;-75
2021/10/27 08:39:24;;;;;;;97.17;32.40;;;;;;;;;;4986024;28;20545;-75
2021/10/27 08:41:49;;;;;;;98.67;31.27;;;;;;;;;;5007300;28;20031;-74
2021/10/27 08:44:15;;;;;;;81.63;30.33;;;;;;;;;;4999957;28;20038;-75
2021/10/27 08:46:43;;;;;;;85.87;29.07;;;;;;;;;;5009742;28;20018;-73
2021/10/27 08:49:09;;;;;;;71.77;27.03;;;;;;;;;;4989720;28;20143;-76
2021/10/27 08:51:37;;;;;;;73.43;27.57;;;;;;;;;;5001245;28;20137;-77
2021/10/27 08:54:06;;;;;;;68.53;25.10;;;;;;;;;;4987515;28;20026;-74
2021/10/27 08:56:31;;;;;;;89.80;26.93;;;;;;;;;;4988171;28;20053;-74
2021/10/27 08:59:07;;;;;;;63.27;24.70;;;;;;;;;;4998344;28;20513;-73
2021/10/27 09:01:44;;;;;;;58.77;23.73;;;;;;;;;;4997101;28;20137;-76
2021/10/27 09:33:53;;;;;;;72.20;25.73;;;;;;;;;;4995854;28;20187;-75
2021/10/27 09:42:25;;;;;;;62.63;24.50;;;;;;;;;;4993677;28;20130;-76
2021/10/27 10:04:56;;;;;;;44.00;20.10;;;;;;;;;;4987778;28;20068;-77
2021/10/27 10:07:22;;;;;;;40.30;17.17;;;;;;;;;;5003713;28;20792;-78
2021/10/27 10:09:47;;;;;;;42.47;17.33;;;;;;;;;;4987035;28;20033;-76
2021/10/27 10:12:13;;;;;;;42.57;17.10;;;;;;;;;;5006190;28;20117;-77
2021/10/27 10:14:47;;;;;;;40.10;16.53;;;;;;;;;;4986957;28;20022;-77
2021/10/27 10:17:13;;;;;;;39.63;16.30;;;;;;;;;;5003357;28;20027;-75
2021/10/27 10:19:41;;;;;;;38.93;16.17;;;;;;;;;;4989667;28;20045;-77
2021/10/27 10:22:45;;;;;;;40.85;16.52;;;;;;;;;;4991182;28;20121;-77
2021/10/27 10:25:14;;;;;;;41.13;17.38;;;;;;;;;;4986062;28;20133;-76
2021/10/27 10:27:45;;;;;;;40.22;16.35;;;;;;;;;;5005175;28;20058;-74
2021/10/27 10:30:36;;;;;;;47.45;16.55;;;;;;;;;;4991045;28;20030;-77
2021/10/27 10:33:09;;;;;;;41.38;17.25;;;;;;;;;;4988796;28;20282;-76
2021/10/27 10:41:46;;;;;;;34.65;15.82;;;;;;;;;;4980766;28;20502;-76
2021/10/27 11:24:23;;;;;;;27.42;13.85;;;;;;;;;;4988191;28;20036;-76
2021/10/27 11:38:35;;;;;;;28.73;13.93;;;;;;;;;;4990986;28;20033;-74
2021/10/27 11:41:29;;;;;;;25.48;12.80;;;;;;;;;;4997932;28;20084;-73
2021/10/27 11:44:09;;;;;;;25.23;12.25;;;;;;;;;;4979506;28;20144;-72
2021/10/27 11:47:01;;;;;;;27.13;12.57;;;;;;;;;;4990362;28;20034;-76
2021/10/27 11:49:37;;;;;;;23.70;12.82;;;;;;;;;;4987816;28;20026;-75
2021/10/27 11:52:03;;;;;;;23.83;12.00;;;;;;;;;;4989298;28;20042;-75
2021/10/27 11:54:30;;;;;;;31.65;13.45;;;;;;;;;;4993395;28;20038;-76
2021/10/27 11:56:58;;;;;;;23.15;11.05;;;;;;;;;;5009983;28;20363;-75
2021/10/27 11:59:52;;;;;;;24.13;11.07;;;;;;;;;;4988928;28;20033;-74
2021/10/27 12:02:18;;;;;;;42.13;10.55;;;;;;;;;;4990104;28;20035;-76
2021/10/27 12:04:44;;;;;;;22.33;10.43;;;;;;;;;;5003082;28;20065;-74
2021/10/27 12:07:15;;;;;;;23.13;10.00;;;;;;;;;;4986649;28;20657;-74
2021/10/27 12:10:29;;;;;;;22.77;10.88;;;;;;;;;;5000752;28;20074;-76
2021/10/27 12:17:51;;;;;;;23.08;10.25;;;;;;;;;;4985021;28;20359;-74
2021/10/27 12:20:34;;;;;;;21.77;11.00;;;;;;;;;;4986986;28;20112;-77
2021/10/27 12:23:01;;;;;;;21.73;9.10;;;;;;;;;;4981677;28;20031;-77
2021/10/27 12:25:28;;;;;;;21.08;8.70;;;;;;;;;;4978229;28;20022;-77
2021/10/27 12:28:06;;;;;;;18.05;9.57;;;;;;;;;;4996361;28;20061;-77
2021/10/27 12:30:46;;;;;;;18.58;10.38;;;;;;;;;;5006023;28;20034;-74
2021/10/27 12:33:11;;;;;;;16.77;9.73;;;;;;;;;;4997148;28;20050;-77
2021/10/27 12:35:37;;;;;;;21.40;9.73;;;;;;;;;;4999156;28;20049;-75
2021/10/27 12:38:17;;;;;;;18.40;10.35;;;;;;;;;;4985998;28;20086;-75
2021/10/27 12:40:45;;;;;;;30.92;10.80;;;;;;;;;;4999019;28;20037;-77
2021/10/27 12:43:17;;;;;;;28.40;11.90;;;;;;;;;;4992259;28;20030;-76
2021/10/27 12:45:46;;;;;;;23.65;10.50;;;;;;;;;;4989820;28;20034;-76
2021/10/27 12:48:17;;;;;;;23.27;9.00;;;;;;;;;;4979563;28;20041;-78
2021/10/27 12:50:51;;;;;;;20.20;9.90;;;;;;;;;;4987388;28;20027;-78
2021/10/27 12:53:45;;;;;;;17.65;8.45;;;;;;;;;;5002962;28;20037;-76
2021/10/27 12:56:22;;;;;;;24.30;9.57;;;;;;;;;;4988657;28;20112;-78
2021/10/27 12:59:02;;;;;;;14.40;8.60;;;;;;;;;;4990847;28;20030;-76
2021/10/27 13:01:51;;;;;;;20.50;8.90;;;;;;;;;;4995186;28;20037;-76
2021/10/27 13:04:39;;;;;;;28.00;9.88;;;;;;;;;;5010336;28;20084;-77
2021/10/27 13:07:14;;;;;;;22.38;10.70;;;;;;;;;;5007395;28;20038;-77
2021/10/27 13:30:54;;;;;;;16.05;8.95;;;;;;;;;;4988108;28;20081;-73
2021/10/27 13:33:21;;;;;;;18.90;9.15;;;;;;;;;;4998196;28;20050;-76
2021/10/27 13:35:47;;;;;;;15.48;7.35;;;;;;;;;;5007545;28;20034;-78
2021/10/27 13:38:14;;;;;;;17.23;9.30;;;;;;;;;;4991083;28;20040;-76
2021/10/27 13:40:43;;;;;;;25.60;9.25;;;;;;;;;;5004622;28;20026;-75
2021/10/27 14:10:03;;;;;;;20.15;7.95;;;;;;;;;;4992817;28;20103;-76
2021/10/27 14:15:38;;;;;;;16.38;7.30;;;;;;;;;;4991211;28;20100;-77
2021/10/27 14:50:44;;;;;;;12.52;7.55;;;;;;;;;;4991454;28;20089;-76
2021/10/27 15:20:37;;;;;;;16.92;7.55;;;;;;;;;;4992839;28;20453;-72
2021/10/27 15:28:23;;;;;;;16.05;7.78;;;;;;;;;;4997330;28;20030;-73
2021/10/27 15:41:54;;;;;;;12.48;6.90;;;;;;;;;;4991881;28;20072;-74
2021/10/27 15:52:11;;;;;;;14.82;7.05;;;;;;;;;;4991552;28;20041;-73
2021/10/27 15:54:36;;;;;;;21.02;8.85;;;;;;;;;;4989551;28;20022;-74
2021/10/27 15:57:02;;;;;;;25.50;11.30;;;;;;;;;;4989630;28;20071;-73
2021/10/27 15:59:29;;;;;;;31.27;13.65;;;;;;;;;;4991100;28;20034;-73
2021/10/27 16:01:54;;;;;;;29.02;12.57;;;;;;;;;;4989977;28;20385;-74
2021/10/27 16:04:20;;;;;;;24.10;10.73;;;;;;;;;;4990133;28;20034;-73
2021/10/27 16:06:54;;;;;;;32.47;11.45;;;;;;;;;;4990638;28;20022;-74
2021/10/27 16:09:25;;;;;;;22.05;9.68;;;;;;;;;;4990294;28;20027;-73
2021/10/27 16:11:51;;;;;;;22.05;8.38;;;;;;;;;;4991271;28;20026;-73
2021/10/27 16:14:21;;;;;;;24.73;13.45;;;;;;;;;;4991313;28;20478;-73
2021/10/27 16:16:46;;;;;;;36.10;15.40;;;;;;;;;;4991006;28;20018;-74
2021/10/27 16:19:12;;;;;;;21.07;10.70;;;;;;;;;;5006161;28;20056;-74
2021/10/27 16:21:38;;;;;;;32.05;14.05;;;;;;;;;;4989902;28;20076;-73
2021/10/27 16:24:03;;;;;;;30.85;12.25;;;;;;;;;;5006027;28;20405;-74
2021/10/27 16:26:29;;;;;;;23.38;10.93;;;;;;;;;;5005981;28;20096;-73
2021/10/27 16:28:56;;;;;;;27.02;12.93;;;;;;;;;;4989614;28;20057;-74
2021/10/27 16:31:23;;;;;;;22.50;11.37;;;;;;;;;;4990921;28;20030;-74
2021/10/27 16:33:48;;;;;;;20.80;9.25;;;;;;;;;;4989561;28;20053;-73
2021/10/27 16:36:14;;;;;;;30.52;11.45;;;;;;;;;;5005594;28;20038;-74
2021/10/27 16:38:41;;;;;;;26.35;10.10;;;;;;;;;;5005299;28;20109;-74
2021/10/27 16:41:09;;;;;;;22.25;11.48;;;;;;;;;;4990769;28;20034;-74
2021/10/27 16:43:36;;;;;;;32.55;13.68;;;;;;;;;;4990748;28;20092;-74
2021/10/27 16:46:02;;;;;;;29.33;13.23;;;;;;;;;;4990813;28;20030;-73
2021/10/27 16:48:28;;;;;;;45.47;20.85;;;;;;;;;;4991727;28;20088;-73
2021/10/27 16:50:57;;;;;;;38.37;14.83;;;;;;;;;;4990860;28;20072;-73
2021/10/27 16:53:24;;;;;;;24.03;10.87;;;;;;;;;;4989337;28;20033;-73
2021/10/27 16:55:50;;;;;;;26.23;11.73;;;;;;;;;;5005743;28;20255;-74
2021/10/27 16:58:16;;;;;;;21.97;11.60;;;;;;;;;;4989171;28;20252;-73
2021/10/27 17:00:42;;;;;;;22.87;11.23;;;;;;;;;;4989007;28;20561;-74
2021/10/27 17:03:07;;;;;;;33.97;12.80;;;;;;;;;;4990742;28;20030;-74
2021/10/27 17:05:34;;;;;;;29.80;13.67;;;;;;;;;;4989516;28;20026;-75
2021/10/27 17:08:00;;;;;;;35.90;12.67;;;;;;;;;;4991627;28;20018;-74
2021/10/27 17:10:26;;;;;;;19.97;11.13;;;;;;;;;;4990603;28;20030;-73
2021/10/27 17:12:53;;;;;;;31.63;14.53;;;;;;;;;;4991948;28;20417;-74
2021/10/27 17:15:18;;;;;;;24.43;11.77;;;;;;;;;;4990144;28;20375;-72
2021/10/27 17:17:44;;;;;;;27.07;12.33;;;;;;;;;;4991002;28;20037;-73
2021/10/27 17:20:14;;;;;;;32.00;12.27;;;;;;;;;;4989719;28;20033;-73
2021/10/27 17:22:44;;;;;;;37.73;11.80;;;;;;;;;;5006434;28;20381;-75
2021/10/27 17:25:13;;;;;;;25.37;11.43;;;;;;;;;;5006076;28;20379;-72
2021/10/27 17:27:40;;;;;;;25.33;12.00;;;;;;;;;;4990097;28;20069;-73
2021/10/27 17:30:10;;;;;;;57.57;20.43;;;;;;;;;;5005719;28;20115;-75
2021/10/27 17:32:36;;;;;;;43.83;14.47;;;;;;;;;;4989356;28;20050;-74
2021/10/27 17:35:07;;;;;;;48.53;13.90;;;;;;;;;;5006436;28;20073;-72
2021/10/27 17:37:32;;;;;;;52.60;14.10;;;;;;;;;;4989557;28;20121;-74
2021/10/27 17:40:03;;;;;;;38.13;13.93;;;;;;;;;;4989299;28;20122;-74
2021/10/27 17:42:31;;;;;;;37.17;13.03;;;;;;;;;;4992384;28;20102;-74
2021/10/27 17:44:56;;;;;;;39.33;15.60;;;;;;;;;;4992690;28;20026;-73
2021/10/27 17:47:29;;;;;;;42.37;14.47;;;;;;;;;;4993972;28;20033;-73
2021/10/27 17:50:13;;;;;;;33.17;13.40;;;;;;;;;;4993913;28;20141;-75
2021/10/27 17:58:34;;;;;;;32.73;16.43;;;;;;;;;;4994441;28;20065;-73
2021/10/27 18:01:05;;;;;;;37.23;18.57;;;;;;;;;;4993979;28;20056;-73
2021/10/27 18:03:32;;;;;;;46.03;20.70;;;;;;;;;;5009069;28;20029;-74
2021/10/27 18:06:06;;;;;;;45.93;21.10;;;;;;;;;;4993436;28;20510;-74
2021/10/27 18:08:35;;;;;;;40.60;20.50;;;;;;;;;;5010047;28;20018;-74
2021/10/27 18:11:05;;;;;;;50.43;20.00;;;;;;;;;;4993345;28;20022;-75
2021/10/27 18:13:36;;;;;;;47.83;22.50;;;;;;;;;;4994813;28;20521;-74
2021/10/27 18:16:10;;;;;;;46.13;20.20;;;;;;;;;;4993299;28;20031;-72
2021/10/27 18:18:50;;;;;;;48.63;21.57;;;;;;;;;;5009553;28;20113;-74
2021/10/27 18:21:39;;;;;;;42.80;21.30;;;;;;;;;;4992699;28;20118;-74
2021/10/27 18:24:21;;;;;;;59.63;23.43;;;;;;;;;;4992242;28;20030;-74
2021/10/27 18:40:32;;;;;;;54.20;24.37;;;;;;;;;;4993404;28;20033;-73
2021/10/27 18:43:07;;;;;;;66.57;27.80;;;;;;;;;;4991760;28;20045;-72
2021/10/27 18:45:34;;;;;;;51.47;23.33;;;;;;;;;;5007134;28;20037;-75
2021/10/27 18:48:05;;;;;;;59.40;25.03;;;;;;;;;;4993089;28;20122;-73
2021/10/27 18:51:05;;;;;;;55.47;24.13;;;;;;;;;;4993911;28;20058;-73
2021/10/27 18:58:26;;;;;;;59.90;25.42;;;;;;;;;;4993343;28;20043;-73
2021/10/27 19:01:05;;;;;;;54.17;23.43;;;;;;;;;;5008656;28;20034;-73
2021/10/27 19:11:30;;;;;;;86.53;30.63;;;;;;;;;;4992885;28;20437;-73
2021/10/27 19:16:37;;;;;;;48.43;21.67;;;;;;;;;;4992455;28;20027;-72
2021/10/27 19:19:03;;;;;;;57.10;21.00;;;;;;;;;;4992606;28;20042;-74
2021/10/27 19:21:30;;;;;;;49.73;22.50;;;;;;;;;;5007615;28;20063;-73
2021/10/27 19:23:59;;;;;;;45.57;22.33;;;;;;;;;;4990660;28;20037;-72
2021/10/27 19:26:38;;;;;;;49.93;20.17;;;;;;;;;;4990979;28;20065;-73
2021/10/27 19:29:17;;;;;;;49.17;19.70;;;;;;;;;;5007592;28;20026;-73
2021/10/27 20:17:46;;;;;;;49.08;21.85;;;;;;;;;;4992035;28;20041;-73
2021/10/27 20:53:18;;;;;;;63.00;26.40;;;;;;;;;;4971477;28;20031;-73
2021/10/27 20:55:45;;;;;;;59.43;26.67;;;;;;;;;;4970468;28;20122;-73
2021/10/27 20:58:24;;;;;;;73.53;29.63;;;;;;;;;;4970746;28;20062;-72
2021/10/27 21:00:56;;;;;;;65.03;27.87;;;;;;;;;;4970645;28;20038;-73
2021/10/27 21:14:23;;;;;;;74.87;30.13;;;;;;;;;;4971878;28;20050;-73
2021/10/27 21:16:50;;;;;;;78.70;31.17;;;;;;;;;;4972492;28;20479;-72
2021/10/27 21:19:16;;;;;;;75.67;29.97;;;;;;;;;;4975522;28;20046;-73
2021/10/27 21:21:45;;;;;;;64.97;29.23;;;;;;;;;;4976089;28;20057;-73
2021/10/27 21:24:11;;;;;;;69.97;30.57;;;;;;;;;;4975384;28;20446;-73
2021/10/27 21:26:36;;;;;;;70.17;29.40;;;;;;;;;;4974401;28;20150;-73